createdAt,value
2023-04-10T00:01:35.908Z,100982.89
2023-04-10T00:04:05.346Z,100980.30
2023-04-10T00:06:33.856Z,100976.52
2023-04-10T00:09:02.231Z,100975.39
2023-04-10T00:11:31.021Z,100972.23
2023-04-10T00:13:59.198Z,100974.63
2023-04-10T00:16:27.494Z,100971.45
2023-04-10T00:18:55.747Z,100972.11
2023-04-10T00:21:24.134Z,100969.79
2023-04-10T00:23:52.763Z,100964.40
2023-04-10T00:26:21.297Z,100960.27
2023-04-10T00:28:49.777Z,100961.02
2023-04-10T00:31:18.160Z,100961.27
2023-04-10T00:33:46.330Z,100955.80
2023-04-10T00:36:14.769Z,100951.71
2023-04-10T00:38:43.399Z,100950.84
2023-04-10T00:41:11.883Z,100945.08
2023-04-10T00:43:40.155Z,100940.98
2023-04-10T00:46:08.498Z,100939.31
2023-04-10T00:48:37.428Z,100938.94
2023-04-10T00:51:06.769Z,100937.29
2023-04-10T00:53:35.095Z,100936.80
2023-04-10T00:56:03.656Z,100931.88
2023-04-10T00:58:31.863Z,100932.55
2023-04-10T01:01:00.577Z,100927.77
2023-04-10T01:03:29.108Z,100930.27
2023-04-10T01:06:00.789Z,100925.54
2023-04-10T01:09:01.631Z,100922.99
2023-04-10T01:11:53.865Z,100920.21
2023-04-10T01:14:43.814Z,100912.84
2023-04-10T01:17:32.339Z,100912.39
2023-04-10T01:20:13.478Z,100911.70
2023-04-10T01:22:41.760Z,100911.23
2023-04-10T01:25:34.316Z,100907.91
2023-04-10T01:28:06.008Z,100909.30
2023-04-10T01:30:36.753Z,100912.67
2023-04-10T01:33:10.090Z,100911.55
2023-04-10T01:35:40.169Z,100910.27
2023-04-10T01:38:09.720Z,100909.93
2023-04-10T01:40:40.294Z,100906.42
2023-04-10T01:43:11.745Z,100908.22
2023-04-10T01:45:50.146Z,100909.22
2023-04-10T01:48:19.314Z,100907.59
2023-04-10T01:50:49.327Z,100904.04
2023-04-10T01:53:18.743Z,100900.50
2023-04-10T01:55:48.237Z,100900.14
2023-04-10T01:58:17.746Z,100897.75
2023-04-10T02:00:46.021Z,100900.53
2023-04-10T02:03:15.280Z,100896.48
2023-04-10T02:05:57.114Z,100895.27
2023-04-10T02:08:34.616Z,100892.49
2023-04-10T02:11:08.105Z,100890.66
2023-04-10T02:13:39.138Z,100887.00
2023-04-10T02:16:09.274Z,100889.27
2023-04-10T02:18:41.338Z,100888.89
2023-04-10T02:21:09.715Z,100891.14
2023-04-10T02:23:38.508Z,100896.19
2023-04-10T02:26:08.730Z,100895.81
2023-04-10T02:28:40.492Z,100897.27
2023-04-10T02:31:08.828Z,100895.52
2023-04-10T02:33:37.042Z,100901.52
2023-04-10T02:36:06.025Z,100899.30
2023-04-10T02:38:34.231Z,100901.85
2023-04-10T02:41:03.094Z,100898.21
2023-04-10T02:43:31.266Z,100899.59
2023-04-10T02:46:00.173Z,100897.63
2023-04-10T02:48:29.769Z,100895.71
2023-04-10T02:51:01.016Z,100890.74
2023-04-10T02:53:30.326Z,100890.86
2023-04-10T02:56:01.160Z,100889.05
2023-04-10T02:58:32.710Z,100891.69
2023-04-10T03:01:02.124Z,100894.64
2023-04-10T03:03:40.325Z,100892.30
2023-04-10T03:06:10.233Z,100888.64
2023-04-10T03:08:39.025Z,100890.23
2023-04-10T03:11:08.942Z,100889.46
2023-04-10T03:13:37.113Z,100890.88
2023-04-10T03:16:06.137Z,100892.04
2023-04-10T03:18:35.005Z,100893.41
2023-04-10T03:21:03.788Z,100894.02
2023-04-10T03:23:32.426Z,100894.60
2023-04-10T03:26:00.953Z,100896.80
2023-04-10T03:28:30.972Z,100897.13
2023-04-10T03:30:59.264Z,100900.08
2023-04-10T03:33:28.591Z,100901.35
2023-04-10T03:35:57.566Z,100900.60
2023-04-10T03:38:27.270Z,100902.13
2023-04-10T03:40:55.936Z,100897.70
2023-04-10T03:43:25.900Z,100899.52
2023-04-10T03:45:54.951Z,100899.70
2023-04-10T03:48:24.354Z,100899.27
2023-04-10T03:50:52.840Z,100901.11
2023-04-10T03:53:21.215Z,100901.70
2023-04-10T03:55:49.696Z,100901.92
2023-04-10T03:58:19.501Z,100904.73
2023-04-10T04:00:47.880Z,100908.77
2023-04-10T04:03:23.452Z,100906.79
2023-04-10T04:05:52.523Z,100910.27
2023-04-10T04:08:36.491Z,100909.98
2023-04-10T04:11:07.724Z,100907.38
2023-04-10T04:13:54.578Z,100906.19
2023-04-10T04:16:46.105Z,100908.11
2023-04-10T04:19:40.750Z,100909.36
2023-04-10T04:22:13.899Z,100908.83
2023-04-10T04:25:00.755Z,100909.65
2023-04-10T04:27:52.783Z,100908.36
2023-04-10T04:30:53.520Z,100906.31
2023-04-10T04:33:27.944Z,100911.05
2023-04-10T04:36:28.985Z,100906.34
2023-04-10T04:39:16.206Z,100903.95
2023-04-10T04:42:04.759Z,100907.88
2023-04-10T04:44:52.086Z,100907.59
2023-04-10T04:47:39.574Z,100907.79
2023-04-10T04:50:09.157Z,100908.70
2023-04-10T04:52:56.208Z,100907.50
2023-04-10T04:55:44.992Z,100908.98
2023-04-10T04:58:33.755Z,100908.09
2023-04-10T05:01:28.098Z,100909.20
2023-04-10T05:04:16.936Z,100909.98
2023-04-10T05:07:20.608Z,100909.15
2023-04-10T05:09:48.885Z,100910.56
2023-04-10T05:12:42.138Z,100915.96
2023-04-10T05:15:29.289Z,100916.30
2023-04-10T05:18:26.861Z,100914.07
2023-04-10T05:21:03.595Z,100914.79
2023-04-10T05:23:40.588Z,100915.46
2023-04-10T05:26:29.335Z,100914.52
2023-04-10T05:29:17.781Z,100919.30
2023-04-10T05:31:57.526Z,100917.61
2023-04-10T05:34:45.784Z,100918.45
2023-04-10T05:37:23.776Z,100920.64
2023-04-10T05:40:03.629Z,100922.75
2023-04-10T05:42:43.378Z,100919.93
2023-04-10T05:45:25.066Z,100921.41
2023-04-10T05:48:15.877Z,100920.92
2023-04-10T05:51:04.873Z,100919.27
2023-04-10T05:53:38.856Z,100922.95
2023-04-10T05:56:32.721Z,100919.20
2023-04-10T05:59:20.045Z,100925.82
2023-04-10T06:02:21.960Z,100925.91
2023-04-10T06:04:51.742Z,100923.09
2023-04-10T06:07:20.511Z,100924.82
2023-04-10T06:09:49.013Z,100925.94
2023-04-10T06:12:17.483Z,100927.63
2023-04-10T06:14:47.320Z,100930.45
2023-04-10T06:17:21.823Z,100926.34
2023-04-10T06:19:50.284Z,100928.73
2023-04-10T06:22:18.871Z,100928.65
2023-04-10T06:24:47.258Z,100924.70
2023-04-10T06:27:15.936Z,100927.10
2023-04-10T06:29:44.521Z,100923.39
2023-04-10T06:32:13.013Z,100925.95
2023-04-10T06:34:42.003Z,100927.88
2023-04-10T06:37:10.994Z,100929.21
2023-04-10T06:39:39.581Z,100928.24
2023-04-10T06:42:07.970Z,100929.77
2023-04-10T06:44:55.789Z,100927.42
2023-04-10T06:47:24.335Z,100928.74
2023-04-10T06:49:53.059Z,100926.37
2023-04-10T06:52:21.654Z,100933.41
2023-04-10T06:54:49.920Z,100931.00
2023-04-10T06:57:18.948Z,100940.09
2023-04-10T06:59:47.190Z,100939.73
2023-04-10T07:04:43.652Z,100938.34
2023-04-10T07:07:13.510Z,100942.55
2023-04-10T07:09:42.261Z,100942.56
2023-04-10T07:12:10.622Z,100949.02
2023-04-10T07:14:39.000Z,100947.58
2023-04-10T07:17:07.392Z,100943.73
2023-04-10T07:19:36.180Z,100952.92
2023-04-10T07:22:04.444Z,100952.20
2023-04-10T07:24:33.030Z,100950.71
2023-04-10T07:27:01.822Z,100949.65
2023-04-10T07:29:31.328Z,100951.52
2023-04-10T07:31:59.718Z,100948.17
2023-04-10T07:34:28.196Z,100947.14
2023-04-10T07:36:56.873Z,100947.39
2023-04-10T07:39:25.264Z,100943.38
2023-04-10T07:41:54.960Z,100945.44
2023-04-10T07:44:23.346Z,100944.95
2023-04-10T07:46:52.536Z,100942.48
2023-04-10T07:49:20.847Z,100946.17
2023-04-10T07:51:49.100Z,100945.90
2023-04-10T07:54:17.267Z,100946.89
2023-04-10T07:56:45.752Z,100948.07
2023-04-10T07:59:14.133Z,100941.45
2023-04-10T08:01:42.341Z,100933.19
2023-04-10T08:04:11.286Z,100933.13
2023-04-10T08:06:39.712Z,100933.10
2023-04-10T08:09:07.850Z,100935.85
2023-04-10T08:11:38.244Z,100930.42
2023-04-10T08:14:07.455Z,100934.01
2023-04-10T08:16:37.121Z,100927.81
2023-04-10T08:19:05.662Z,100926.60
2023-04-10T08:21:34.043Z,100924.73
2023-04-10T08:24:04.071Z,100922.23
2023-04-10T08:26:32.678Z,100920.77
2023-04-10T08:29:01.025Z,100920.58
2023-04-10T08:31:30.044Z,100916.94
2023-04-10T08:33:59.047Z,100919.58
2023-04-10T08:36:28.118Z,100917.41
2023-04-10T08:38:56.380Z,100920.64
2023-04-10T08:41:24.685Z,100918.23
2023-04-10T08:43:53.077Z,100915.05
2023-04-10T08:46:24.744Z,100911.84
2023-04-10T08:49:03.859Z,100907.70
2023-04-10T08:51:38.188Z,100910.02
2023-04-10T08:54:08.313Z,100905.23
2023-04-10T08:56:39.042Z,100900.52
2023-04-10T08:59:08.301Z,100897.75
2023-04-10T09:01:36.910Z,100903.55
2023-04-10T09:04:05.935Z,100903.12
2023-04-10T09:06:34.255Z,100899.20
2023-04-10T09:09:02.995Z,100900.05
2023-04-10T09:12:01.242Z,100902.04
2023-04-10T09:14:29.706Z,100897.37
2023-04-10T09:17:16.469Z,100893.20
2023-04-10T09:19:46.824Z,100878.86
2023-04-10T09:22:16.395Z,100876.23
2023-04-10T09:24:46.640Z,100871.10
2023-04-10T09:27:37.600Z,100869.95
2023-04-10T09:30:07.291Z,100869.54
2023-04-10T09:32:38.796Z,100869.39
2023-04-10T09:35:08.693Z,100865.69
2023-04-10T09:37:37.963Z,100860.64
2023-04-10T09:40:06.993Z,100857.56
2023-04-10T09:42:37.726Z,100854.30
2023-04-10T09:45:06.677Z,100851.55
2023-04-10T09:47:34.989Z,100849.11
2023-04-10T09:50:03.845Z,100844.54
2023-04-10T09:52:35.080Z,100843.64
2023-04-10T09:55:05.414Z,100844.25
2023-04-10T09:57:35.058Z,100843.48
2023-04-10T10:00:09.602Z,100838.40
2023-04-10T10:02:42.352Z,100833.53
2023-04-10T10:05:11.683Z,100821.30
2023-04-10T10:07:40.135Z,100820.16
2023-04-10T10:10:11.556Z,100824.59
2023-04-10T10:12:50.790Z,100824.38
2023-04-10T10:15:50.006Z,100816.48
2023-04-10T10:18:27.725Z,100811.09
2023-04-10T10:20:57.125Z,100816.24
2023-04-10T10:23:26.705Z,100814.71
2023-04-10T10:25:56.677Z,100806.04
2023-04-10T10:28:28.306Z,100805.17
2023-04-10T10:30:56.965Z,100796.39
2023-04-10T10:33:26.476Z,100792.27
2023-04-10T10:36:00.608Z,100794.42
2023-04-10T10:38:28.980Z,100787.42
2023-04-10T10:41:13.114Z,100782.90
2023-04-10T10:44:02.086Z,100788.52
2023-04-10T10:46:43.645Z,100783.27
2023-04-10T10:49:12.111Z,100780.87
2023-04-10T10:51:51.410Z,100774.90
2023-04-10T10:54:34.564Z,100768.38
2023-04-10T10:57:06.677Z,100768.02
2023-04-10T10:59:55.852Z,100760.02
2023-04-10T11:02:24.674Z,100758.30
2023-04-10T11:04:53.011Z,100748.02
2023-04-10T11:07:21.899Z,100738.30
2023-04-10T11:09:53.763Z,100741.13
2023-04-10T11:12:26.331Z,100738.53
2023-04-10T11:15:03.383Z,100728.84
2023-04-10T11:17:52.652Z,100729.21
2023-04-10T11:20:27.506Z,100722.88
2023-04-10T11:23:12.074Z,100723.52
2023-04-10T11:25:52.442Z,100726.63
2023-04-10T11:28:40.893Z,100718.88
2023-04-10T11:31:23.617Z,100722.02
2023-04-10T11:33:58.845Z,100715.85
2023-04-10T11:36:27.743Z,100708.55
2023-04-10T11:39:00.104Z,100704.21
2023-04-10T11:41:30.825Z,100699.61
2023-04-10T11:44:01.411Z,100693.92
2023-04-10T11:46:31.345Z,100694.80
2023-04-10T11:49:01.728Z,100694.08
2023-04-10T11:51:31.718Z,100692.36
2023-04-10T11:54:20.480Z,100684.90
2023-04-10T11:56:58.687Z,100675.27
2023-04-10T11:59:28.208Z,100673.06
2023-04-10T12:02:12.026Z,100673.95
2023-04-10T12:04:41.966Z,100663.52
2023-04-10T12:07:11.253Z,100661.54
2023-04-10T12:09:39.629Z,100653.28
2023-04-10T12:12:08.500Z,100646.52
2023-04-10T12:14:39.594Z,100645.09
2023-04-10T12:17:10.551Z,100641.91
2023-04-10T12:19:41.542Z,100637.73
2023-04-10T12:22:13.093Z,100634.27
2023-04-10T12:24:43.775Z,100629.06
2023-04-10T12:27:26.970Z,100627.02
2023-04-10T12:29:57.226Z,100617.83
2023-04-10T12:32:27.738Z,100620.48
2023-04-10T12:34:57.945Z,100615.60
2023-04-10T12:37:49.367Z,100608.66
2023-04-10T12:40:18.358Z,100609.19
2023-04-10T12:42:47.460Z,100606.02
2023-04-10T12:45:15.774Z,100612.49
2023-04-10T12:47:51.881Z,100604.45
2023-04-10T12:50:24.464Z,100599.56
2023-04-10T12:53:05.028Z,100592.44
2023-04-10T12:55:33.414Z,100600.73
2023-04-10T12:58:20.332Z,100598.75
2023-04-10T13:00:49.934Z,100592.74
2023-04-10T13:03:18.564Z,100593.04
2023-04-10T13:05:47.270Z,100589.55
2023-04-10T13:08:15.479Z,100585.30
2023-04-10T13:10:43.980Z,100583.75
2023-04-10T13:13:13.248Z,100581.80
2023-04-10T13:15:41.868Z,100584.25
2023-04-10T13:18:13.620Z,100584.11
2023-04-10T13:20:42.279Z,100579.05
2023-04-10T13:23:10.511Z,100579.56
2023-04-10T13:25:40.771Z,100576.14
2023-04-10T13:28:12.010Z,100569.50
2023-04-10T13:30:41.841Z,100563.06
2023-04-10T13:33:10.484Z,100561.44
2023-04-10T13:35:40.326Z,100559.19
2023-04-10T13:38:09.731Z,100564.33
2023-04-10T13:40:38.130Z,100562.10
2023-04-10T13:43:06.807Z,100560.66
2023-04-10T13:45:35.598Z,100558.73
2023-04-10T13:48:04.237Z,100559.17
2023-04-10T13:50:33.976Z,100560.43
2023-04-10T13:53:02.391Z,100558.20
2023-04-10T13:55:30.803Z,100556.90
2023-04-10T13:57:59.237Z,100556.25
2023-04-10T14:00:27.935Z,100558.48
2023-04-10T14:02:56.578Z,100552.32
2023-04-10T14:05:24.989Z,100552.20
2023-04-10T14:07:57.059Z,100546.86
2023-04-10T14:10:25.337Z,100542.74
2023-04-10T14:12:53.707Z,100539.95
2023-04-10T14:15:21.891Z,100541.55
2023-04-10T14:17:50.174Z,100534.30
2023-04-10T14:20:18.335Z,100535.84
2023-04-10T14:22:47.974Z,100535.13
2023-04-10T14:25:16.836Z,100532.58
2023-04-10T14:27:45.818Z,100529.34
2023-04-10T14:30:14.197Z,100527.95
2023-04-10T14:32:44.018Z,100528.56
2023-04-10T14:35:12.334Z,100531.61
2023-04-10T14:37:42.614Z,100529.91
2023-04-10T14:40:11.201Z,100532.66
2023-04-10T14:42:39.475Z,100535.48
2023-04-10T14:45:08.703Z,100534.41
2023-04-10T14:47:36.984Z,100539.30
2023-04-10T14:50:06.356Z,100539.41
2023-04-10T14:52:34.487Z,100538.45
2023-04-10T14:55:03.115Z,100539.98
2023-04-10T14:57:31.603Z,100540.23
2023-04-10T15:00:01.609Z,100539.77
2023-04-10T15:02:30.789Z,100533.16
2023-04-10T15:04:59.145Z,100532.77
2023-04-10T15:07:30.649Z,100530.18
2023-04-10T15:09:59.247Z,100526.20
2023-04-10T15:12:27.609Z,100526.83
2023-04-10T15:14:55.783Z,100520.41
2023-04-10T15:17:24.505Z,100521.78
2023-04-10T15:19:52.845Z,100518.48
2023-04-10T15:22:21.023Z,100518.80
2023-04-10T15:24:50.863Z,100512.89
2023-04-10T15:27:21.519Z,100506.55
2023-04-10T15:29:49.751Z,100514.48
2023-04-10T15:32:18.510Z,100511.47
2023-04-10T15:34:46.807Z,100509.92
2023-04-10T15:37:15.185Z,100507.88
2023-04-10T15:39:43.663Z,100506.05
2023-04-10T15:42:11.843Z,100501.35
2023-04-10T15:44:40.060Z,100499.63
2023-04-10T15:47:08.285Z,100497.14
2023-04-10T15:49:38.681Z,100494.84
2023-04-10T15:52:07.560Z,100493.45
2023-04-10T15:54:36.036Z,100495.14
2023-04-10T15:57:04.386Z,100487.73
2023-04-10T15:59:33.696Z,100494.70
2023-04-10T16:02:02.439Z,100491.05
2023-04-10T16:04:31.519Z,100489.52
2023-04-10T16:07:00.036Z,100491.81
2023-04-10T16:09:28.881Z,100490.80
2023-04-10T16:11:57.955Z,100485.66
2023-04-10T16:14:26.407Z,100484.70
2023-04-10T16:16:54.886Z,100482.09
2023-04-10T16:19:23.832Z,100482.89
2023-04-10T16:21:52.071Z,100483.14
2023-04-10T16:24:20.328Z,100480.84
2023-04-10T16:26:50.080Z,100481.91
2023-04-10T16:29:20.583Z,100480.04
2023-04-10T16:31:48.975Z,100479.05
2023-04-10T16:34:17.433Z,100479.83
2023-04-10T16:36:45.704Z,100479.56
2023-04-10T16:39:13.987Z,100477.70
2023-04-10T16:41:42.199Z,100478.59
2023-04-10T16:44:10.637Z,100479.52
2023-04-10T16:46:39.008Z,100479.95
2023-04-10T16:49:07.292Z,100479.67
2023-04-10T16:51:35.476Z,100478.13
2023-04-10T16:54:04.085Z,100478.50
2023-04-10T16:56:33.047Z,100480.58
2023-04-10T16:59:01.322Z,100478.91
2023-04-10T17:01:29.539Z,100480.77
2023-04-10T17:03:57.833Z,100480.97
2023-04-10T17:06:27.140Z,100486.11
2023-04-10T17:08:55.650Z,100484.00
2023-04-10T17:11:24.144Z,100484.02
2023-04-10T17:13:52.621Z,100487.17
2023-04-10T17:16:20.914Z,100482.83
2023-04-10T17:18:50.402Z,100480.12
2023-04-10T17:21:18.891Z,100483.71
2023-04-10T17:23:47.064Z,100487.10
2023-04-10T17:26:16.977Z,100488.83
2023-04-10T17:28:46.518Z,100487.70
2023-04-10T17:31:17.207Z,100489.39
2023-04-10T17:33:45.696Z,100489.91
2023-04-10T17:36:14.946Z,100492.67
2023-04-10T17:38:43.688Z,100499.55
2023-04-10T17:41:15.210Z,100499.31
2023-04-10T17:43:43.519Z,100502.52
2023-04-10T17:46:15.538Z,100507.48
2023-04-10T17:48:44.740Z,100503.45
2023-04-10T17:51:13.974Z,100504.63
2023-04-10T17:53:42.370Z,100508.00
2023-04-10T17:56:21.152Z,100504.52
2023-04-10T17:58:49.459Z,100504.02
2023-04-10T18:01:26.126Z,100503.71
2023-04-10T18:03:54.484Z,100503.02
2023-04-10T18:06:22.806Z,100500.98
2023-04-10T18:08:50.971Z,100499.26
2023-04-10T18:11:19.241Z,100496.94
2023-04-10T18:13:47.929Z,100496.59
2023-04-10T18:16:17.617Z,100497.78
2023-04-10T18:18:46.331Z,100498.15
2023-04-10T18:21:15.617Z,100496.48
2023-04-10T18:23:44.767Z,100498.83
2023-04-10T18:26:13.522Z,100501.08
2023-04-10T18:28:43.318Z,100499.13
2023-04-10T18:31:14.863Z,100501.04
2023-04-10T18:33:43.506Z,100497.46
2023-04-10T18:36:14.191Z,100494.77
2023-04-10T18:38:44.138Z,100497.28
2023-04-10T18:41:15.361Z,100495.08
2023-04-10T18:43:48.828Z,100490.70
2023-04-10T18:46:28.258Z,100489.66
2023-04-10T18:48:56.801Z,100490.98
2023-04-10T18:51:25.188Z,100485.94
2023-04-10T18:53:53.895Z,100486.38
2023-04-10T18:56:25.053Z,100487.77
2023-04-10T18:58:53.219Z,100486.40
2023-04-10T19:01:21.456Z,100486.29
2023-04-10T19:03:54.828Z,100487.36
2023-04-10T19:06:24.136Z,100485.25
2023-04-10T19:08:52.338Z,100481.02
2023-04-10T19:11:21.345Z,100480.68
2023-04-10T19:13:49.700Z,100481.52
2023-04-10T19:16:19.683Z,100474.65
2023-04-10T19:18:48.276Z,100473.16
2023-04-10T19:21:16.554Z,100471.17
2023-04-10T19:23:45.154Z,100467.83
2023-04-10T19:26:14.454Z,100472.80
2023-04-10T19:28:43.505Z,100465.17
2023-04-10T19:31:11.930Z,100466.04
2023-04-10T19:33:40.081Z,100465.20
2023-04-10T19:36:08.827Z,100467.55
2023-04-10T19:38:37.149Z,100463.59
2023-04-10T19:41:13.729Z,100465.88
2023-04-10T19:43:42.141Z,100464.00
2023-04-10T19:46:20.979Z,100462.83
2023-04-10T19:48:49.621Z,100463.36
2023-04-10T19:51:18.203Z,100463.84
2023-04-10T19:53:46.569Z,100464.38
2023-04-10T19:56:16.689Z,100463.94
2023-04-10T19:58:55.997Z,100461.64
2023-04-10T20:01:24.730Z,100461.75
2023-04-10T20:03:53.555Z,100460.23
2023-04-10T20:06:22.504Z,100458.14
2023-04-10T20:08:51.178Z,100458.14
2023-04-10T20:11:19.252Z,100457.42
2023-04-10T20:13:47.742Z,100457.28
2023-04-10T20:16:16.626Z,100458.49
2023-04-10T20:18:44.898Z,100456.25
2023-04-10T20:21:12.956Z,100450.24
2023-04-10T20:23:41.051Z,100449.70
2023-04-10T20:26:13.163Z,100448.94
2023-04-10T20:28:41.798Z,100445.70
2023-04-10T20:31:11.110Z,100440.94
2023-04-10T20:33:39.577Z,100440.17
2023-04-10T20:36:08.396Z,100437.45
2023-04-10T20:38:37.052Z,100436.14
2023-04-10T20:41:05.664Z,100433.24
2023-04-10T20:43:34.451Z,100431.80
2023-04-10T20:46:08.101Z,100428.07
2023-04-10T20:48:38.120Z,100427.02
2023-04-10T20:51:07.323Z,100426.23
2023-04-10T20:53:35.727Z,100424.30
2023-04-10T20:56:06.202Z,100424.61
2023-04-10T20:58:34.823Z,100421.30
2023-04-10T21:01:03.047Z,100419.92
2023-04-10T21:03:32.342Z,100417.66
2023-04-10T21:06:04.384Z,100420.15
2023-04-10T21:08:32.676Z,100423.36
2023-04-10T21:11:01.116Z,100423.73
2023-04-10T21:13:29.521Z,100422.39
2023-04-10T21:15:57.912Z,100420.88
2023-04-10T21:18:26.386Z,100417.76
2023-04-10T21:20:54.759Z,100414.38
2023-04-10T21:23:22.803Z,100411.66
2023-04-10T21:25:54.440Z,100407.02
2023-04-10T21:28:22.637Z,100404.83
2023-04-10T21:30:50.764Z,100406.48
2023-04-10T21:33:19.016Z,100407.27
2023-04-10T21:35:48.098Z,100408.91
2023-04-10T21:38:16.281Z,100406.67
2023-04-10T21:40:51.589Z,100401.84
2023-04-10T21:43:22.780Z,100406.52
2023-04-10T21:45:51.197Z,100404.11
2023-04-10T21:48:22.398Z,100403.48
2023-04-10T21:50:51.424Z,100406.47
2023-04-10T21:53:19.732Z,100406.23
2023-04-10T21:55:47.884Z,100408.50
2023-04-10T21:58:16.467Z,100414.79
2023-04-10T22:00:47.384Z,100414.84
2023-04-10T22:03:20.549Z,100407.14
2023-04-10T22:05:50.571Z,100407.59
2023-04-10T22:08:20.311Z,100409.27
2023-04-10T22:10:48.666Z,100404.43
2023-04-10T22:13:29.483Z,100396.87
2023-04-10T22:15:59.986Z,100394.08
2023-04-10T22:18:28.346Z,100398.49
2023-04-10T22:20:56.819Z,100397.89
2023-04-10T22:23:25.406Z,100395.26
2023-04-10T22:25:53.885Z,100394.03
2023-04-10T22:28:22.575Z,100392.32
2023-04-10T22:30:50.952Z,100387.48
2023-04-10T22:33:19.245Z,100382.17
2023-04-10T22:35:47.460Z,100380.80
2023-04-10T22:38:15.788Z,100378.60
2023-04-10T22:40:44.364Z,100373.17
2023-04-10T22:43:13.357Z,100367.05
2023-04-10T22:45:42.249Z,100360.70
2023-04-10T22:48:10.465Z,100354.30
2023-04-10T22:50:38.807Z,100352.86
2023-04-10T22:53:07.293Z,100346.79
2023-04-10T22:55:38.331Z,100347.70
2023-04-10T22:58:07.538Z,100339.93
2023-04-10T23:00:36.003Z,100337.32
2023-04-10T23:03:07.029Z,100336.45
2023-04-10T23:05:35.382Z,100327.95
2023-04-10T23:08:03.531Z,100325.48
2023-04-10T23:10:31.774Z,100321.15
2023-04-10T23:13:00.048Z,100315.83
2023-04-10T23:15:28.228Z,100312.38
2023-04-10T23:17:57.549Z,100314.25
2023-04-10T23:20:26.627Z,100313.73
2023-04-10T23:22:57.906Z,100312.23
2023-04-10T23:25:26.136Z,100310.24
2023-04-10T23:27:54.409Z,100306.03
2023-04-10T23:30:22.535Z,100300.02
2023-04-10T23:32:50.830Z,100298.87
2023-04-10T23:35:19.037Z,100295.02
2023-04-10T23:37:47.326Z,100290.94
2023-04-10T23:40:15.910Z,100288.48
2023-04-10T23:42:44.561Z,100287.94
2023-04-10T23:45:13.649Z,100286.64
2023-04-10T23:47:41.892Z,100282.21
2023-04-10T23:50:10.860Z,100280.09
2023-04-10T23:52:39.309Z,100278.58
2023-04-10T23:55:07.978Z,100275.36
2023-04-10T23:57:36.044Z,100271.61
